Sioux Falls, South Dakota
Current Conditions -  °F | °C
As of 8:56 AM on Thursday 30 Oct 2014 (Local Time) from KFSD Reporting Station
Few Clouds Few Clouds  
Wind Chill: 38°   Ceiling: Unl
Heat Index: 44°   Visibility: 10mi
Dew Point: 34°   Wind: 12mph
Humidity: 68%   Direction: 340°NNW
Pressure: 30.04"   Gusts: NA
Location:  43.55°N, 96.73°W
Report Text: KFSD 301356Z 34010KT 10SM FEW110 07/01 A3004 RMK AO2 SLP179 T00670011
Loading
Personal Weather Stations






























Interactive Weather Map
Tropical Storm Tracking
New forecast layout! Learn more

10-Day Weather Forecast

Advertisements
Track Severe Weather on mobile